createdAt,value
2023-01-09T00:01:21.856Z,1.20
2023-01-09T00:03:49.829Z,1.00
2023-01-09T00:06:17.926Z,1.30
2023-01-09T00:08:47.118Z,1.43
2023-01-09T00:11:15.049Z,1.07
2023-01-09T00:13:42.962Z,1.27
2023-01-09T00:16:11.043Z,1.20
2023-01-09T00:18:38.941Z,0.80
2023-01-09T00:21:08.597Z,0.83
2023-01-09T00:23:36.585Z,0.80
2023-01-09T00:26:08.403Z,1.00
2023-01-09T00:28:36.933Z,0.90
2023-01-09T00:31:06.995Z,0.80
2023-01-09T00:33:37.203Z,0.80
2023-01-09T00:36:05.312Z,0.97
2023-01-09T00:38:33.201Z,0.70
2023-01-09T00:41:03.285Z,0.60
2023-01-09T00:43:36.588Z,0.70
2023-01-09T00:46:07.719Z,0.50
2023-01-09T00:48:38.556Z,0.60
2023-01-09T00:51:08.184Z,0.60
2023-01-09T00:53:38.487Z,0.43
2023-01-09T00:56:09.617Z,0.30
2023-01-09T00:58:39.145Z,0.30
2023-01-09T01:01:07.370Z,0.40
2023-01-09T01:03:35.410Z,0.30
2023-01-09T01:06:25.840Z,0.30
2023-01-09T01:08:55.753Z,0.30
2023-01-09T01:11:24.431Z,0.20
2023-01-09T01:13:54.208Z,0.40
2023-01-09T01:16:22.097Z,0.20
2023-01-09T01:18:50.523Z,0.20
2023-01-09T01:21:18.762Z,0.30
2023-01-09T01:23:46.701Z,0.20
2023-01-09T01:26:16.391Z,0.40
2023-01-09T01:28:45.453Z,0.30
2023-01-09T01:31:18.988Z,0.30
2023-01-09T01:33:47.608Z,0.37
2023-01-09T01:36:17.426Z,0.23
2023-01-09T01:38:46.890Z,0.30
2023-01-09T01:41:14.892Z,0.30
2023-01-09T01:43:53.775Z,0.20
2023-01-09T01:46:23.436Z,0.20
2023-01-09T01:48:55.078Z,0.30
2023-01-09T01:51:25.323Z,0.23
2023-01-09T01:53:56.267Z,0.30
2023-01-09T01:56:28.022Z,0.20
2023-01-09T01:59:02.252Z,0.20
2023-01-09T02:01:33.119Z,0.20
2023-01-09T02:04:03.759Z,0.30
2023-01-09T02:06:34.890Z,0.20
2023-01-09T02:09:04.351Z,0.30
2023-01-09T02:11:32.560Z,0.40
2023-01-09T02:14:01.649Z,0.33
2023-01-09T02:16:47.706Z,0.20
2023-01-09T02:19:33.181Z,0.20
2023-01-09T02:22:12.714Z,0.30
2023-01-09T02:25:10.097Z,0.57
2023-01-09T02:28:06.827Z,0.43
2023-01-09T02:30:45.236Z,0.40
2023-01-09T02:33:30.343Z,0.50
2023-01-09T02:36:21.287Z,0.27
2023-01-09T02:39:00.769Z,0.30
2023-01-09T02:41:36.042Z,0.37
2023-01-09T02:44:15.860Z,0.30
2023-01-09T02:46:45.240Z,0.50
2023-01-09T02:49:17.177Z,0.50
2023-01-09T02:51:53.357Z,0.60
2023-01-09T02:54:30.519Z,0.53
2023-01-09T02:57:12.975Z,0.70
2023-01-09T02:59:54.850Z,0.70
2023-01-09T03:02:40.380Z,0.80
2023-01-09T03:05:15.751Z,0.63
2023-01-09T03:07:49.301Z,0.67
2023-01-09T03:10:21.829Z,0.70
2023-01-09T03:12:54.557Z,0.93
2023-01-09T03:15:27.014Z,0.90
2023-01-09T03:17:58.305Z,0.80
2023-01-09T03:20:28.678Z,0.87
2023-01-09T03:22:58.978Z,0.87
2023-01-09T03:25:28.396Z,0.93
2023-01-09T03:27:58.904Z,1.10
2023-01-09T03:30:28.209Z,0.97
2023-01-09T03:32:58.084Z,1.00
2023-01-09T03:35:26.073Z,1.10
2023-01-09T03:37:54.014Z,1.20
2023-01-09T03:40:22.426Z,0.90
2023-01-09T03:42:50.390Z,1.27
2023-01-09T03:45:18.267Z,0.93
2023-01-09T03:47:46.110Z,1.00
2023-01-09T03:50:15.391Z,1.00
2023-01-09T03:52:43.233Z,0.90
2023-01-09T03:55:11.326Z,0.97
2023-01-09T03:57:39.123Z,1.10
2023-01-09T04:00:09.178Z,1.20
2023-01-09T04:02:43.261Z,1.30
2023-01-09T04:05:11.710Z,1.60
2023-01-09T04:07:40.868Z,1.60
2023-01-09T04:10:09.748Z,1.40
2023-01-09T04:12:37.525Z,1.57
2023-01-09T04:15:05.967Z,1.50
2023-01-09T04:17:33.756Z,1.47
2023-01-09T04:20:01.637Z,1.83
2023-01-09T04:22:31.253Z,1.60
2023-01-09T04:25:00.398Z,1.70
2023-01-09T04:27:28.263Z,1.60
2023-01-09T04:29:56.081Z,1.80
2023-01-09T04:32:23.900Z,1.70
2023-01-09T04:34:51.646Z,1.47
2023-01-09T04:37:19.493Z,1.60
2023-01-09T04:39:47.616Z,1.40
2023-01-09T04:42:16.841Z,1.30
2023-01-09T04:44:44.684Z,1.30
2023-01-09T04:47:13.545Z,1.70
2023-01-09T04:49:41.385Z,1.70
2023-01-09T04:52:09.215Z,1.57
2023-01-09T04:54:36.984Z,2.20
2023-01-09T04:57:04.936Z,1.57
2023-01-09T04:59:34.196Z,1.50
2023-01-09T05:02:02.237Z,1.90
2023-01-09T05:04:30.137Z,1.63
2023-01-09T05:06:57.895Z,1.80
2023-01-09T05:09:25.696Z,2.00
2023-01-09T05:11:53.734Z,2.00
2023-01-09T05:14:21.719Z,2.10
2023-01-09T05:16:50.994Z,1.70
2023-01-09T05:19:19.064Z,1.90
2023-01-09T05:21:47.450Z,1.90
2023-01-09T05:24:15.325Z,2.33
2023-01-09T05:26:43.119Z,1.90
2023-01-09T05:29:11.753Z,2.10
2023-01-09T05:31:39.540Z,2.10
2023-01-09T05:34:08.793Z,1.93
2023-01-09T05:36:37.027Z,2.40
2023-01-09T05:39:05.849Z,2.50
2023-01-09T05:41:33.669Z,2.63
2023-01-09T05:44:01.776Z,2.00
2023-01-09T05:46:29.602Z,1.90
2023-01-09T05:48:57.595Z,2.10
2023-01-09T05:51:26.806Z,2.10
2023-01-09T05:53:54.675Z,1.50
2023-01-09T05:56:22.560Z,1.50
2023-01-09T05:58:50.479Z,1.90
2023-01-09T06:01:18.281Z,1.23
2023-01-09T06:03:46.153Z,1.27
2023-01-09T06:06:13.921Z,1.27
2023-01-09T06:08:43.122Z,1.30
2023-01-09T06:11:10.955Z,1.00
2023-01-09T06:13:38.799Z,1.20
2023-01-09T06:16:07.775Z,1.00
2023-01-09T06:18:35.663Z,1.37
2023-01-09T06:21:03.484Z,1.03
2023-01-09T06:23:31.364Z,1.67
2023-01-09T06:26:00.597Z,1.30
2023-01-09T06:28:28.425Z,1.17
2023-01-09T06:30:56.339Z,1.70
2023-01-09T06:33:24.239Z,1.10
2023-01-09T06:35:52.156Z,1.27
2023-01-09T06:38:20.059Z,0.90
2023-01-09T06:40:48.010Z,0.90
2023-01-09T06:43:17.327Z,0.80
2023-01-09T06:45:45.215Z,1.13
2023-01-09T06:48:13.695Z,1.00
2023-01-09T06:50:41.896Z,1.20
2023-01-09T06:53:10.624Z,1.00
2023-01-09T06:55:38.615Z,1.10
2023-01-09T06:58:06.594Z,1.00
2023-01-09T07:00:36.190Z,1.10
2023-01-09T07:03:04.487Z,0.90
2023-01-09T07:05:35.616Z,0.83
2023-01-09T07:08:03.547Z,1.53
2023-01-09T07:10:31.446Z,1.00
2023-01-09T07:12:59.312Z,0.90
2023-01-09T07:15:27.346Z,1.23
2023-01-09T07:17:56.539Z,1.77
2023-01-09T07:20:24.500Z,0.97
2023-01-09T07:22:52.356Z,0.90
2023-01-09T07:25:20.209Z,1.00
2023-01-09T07:27:48.935Z,1.13
2023-01-09T07:30:17.418Z,1.00
2023-01-09T07:32:45.469Z,1.00
2023-01-09T07:35:14.790Z,1.37
2023-01-09T07:37:42.576Z,1.10
2023-01-09T07:40:11.810Z,1.00
2023-01-09T07:42:39.741Z,1.73
2023-01-09T07:45:09.021Z,1.13
2023-01-09T07:47:37.143Z,0.97
2023-01-09T07:50:05.345Z,1.33
2023-01-09T07:52:34.472Z,1.10
2023-01-09T07:55:02.337Z,1.17
2023-01-09T07:57:30.847Z,1.10
2023-01-09T08:00:00.576Z,1.33
2023-01-09T08:02:28.753Z,1.03
2023-01-09T08:04:56.607Z,1.03
2023-01-09T08:07:24.463Z,1.10
2023-01-09T08:09:53.662Z,0.80
2023-01-09T08:12:21.530Z,1.00
2023-01-09T08:14:49.370Z,1.27
2023-01-09T08:17:17.178Z,1.43
2023-01-09T08:19:45.270Z,1.40
2023-01-09T08:22:13.103Z,0.90
2023-01-09T08:24:40.966Z,0.73
2023-01-09T08:27:10.214Z,1.00
2023-01-09T08:29:38.924Z,1.37
2023-01-09T08:32:06.946Z,1.13
2023-01-09T08:34:34.856Z,1.00
2023-01-09T08:37:02.698Z,1.00
2023-01-09T08:39:30.693Z,1.03
2023-01-09T08:42:16.292Z,1.60
2023-01-09T08:45:02.865Z,1.17
2023-01-09T08:47:33.348Z,1.20
2023-01-09T08:50:01.566Z,1.43
2023-01-09T08:52:30.614Z,1.00
2023-01-09T08:54:58.574Z,1.10
2023-01-09T08:57:26.495Z,0.87
2023-01-09T08:59:55.756Z,1.47
2023-01-09T09:02:23.882Z,1.07
2023-01-09T09:04:53.663Z,1.37
2023-01-09T09:07:26.607Z,1.10
2023-01-09T09:09:54.994Z,0.90
2023-01-09T09:12:23.952Z,1.60
2023-01-09T09:15:09.442Z,1.20
2023-01-09T09:17:38.661Z,1.30
2023-01-09T09:20:07.843Z,1.30
2023-01-09T09:22:35.710Z,1.33
2023-01-09T09:25:04.888Z,1.00
2023-01-09T09:27:33.374Z,1.10
2023-01-09T09:30:01.257Z,1.13
2023-01-09T09:32:29.282Z,1.00
2023-01-09T09:34:58.556Z,0.87
2023-01-09T09:37:26.362Z,1.07
2023-01-09T09:39:54.423Z,1.53
2023-01-09T09:43:05.428Z,0.83
2023-01-09T09:45:44.557Z,0.80
2023-01-09T09:48:27.452Z,0.90
2023-01-09T09:51:19.227Z,1.27
2023-01-09T09:53:52.756Z,1.13
2023-01-09T09:56:24.378Z,1.17
2023-01-09T09:58:55.202Z,0.93
2023-01-09T10:01:26.638Z,1.63
2023-01-09T10:03:58.414Z,0.87
2023-01-09T10:06:30.565Z,1.17
2023-01-09T10:09:04.954Z,1.00
2023-01-09T10:11:40.508Z,1.10
2023-01-09T10:14:19.420Z,1.10
2023-01-09T10:17:04.766Z,1.57
2023-01-09T10:19:42.718Z,1.23
2023-01-09T10:22:25.024Z,1.30
2023-01-09T10:25:13.964Z,1.93
2023-01-09T10:28:03.404Z,1.60
2023-01-09T10:30:38.716Z,1.50
2023-01-09T10:33:24.556Z,1.30
2023-01-09T10:36:26.324Z,1.57
2023-01-09T10:39:00.141Z,1.40
2023-01-09T10:41:32.839Z,1.53
2023-01-09T10:44:06.825Z,1.53
2023-01-09T10:46:40.401Z,1.73
2023-01-09T10:49:13.788Z,1.53
2023-01-09T10:51:47.927Z,1.47
2023-01-09T10:54:20.059Z,1.30
2023-01-09T10:56:55.463Z,1.40
2023-01-09T10:59:23.564Z,1.90
2023-01-09T11:01:51.618Z,1.67
2023-01-09T11:04:27.108Z,1.87
2023-01-09T11:07:00.935Z,1.47
2023-01-09T11:09:50.229Z,1.60
2023-01-09T11:12:26.097Z,1.70
2023-01-09T11:14:54.028Z,1.33
2023-01-09T11:17:26.601Z,1.77
2023-01-09T11:20:06.628Z,1.30
2023-01-09T11:22:44.681Z,1.30
2023-01-09T11:25:16.435Z,1.50
2023-01-09T11:27:44.513Z,1.40
2023-01-09T11:30:23.975Z,1.40
2023-01-09T11:32:51.847Z,1.40
2023-01-09T11:35:23.978Z,1.50
2023-01-09T11:38:02.346Z,1.20
2023-01-09T11:40:36.531Z,1.53
2023-01-09T11:43:12.307Z,1.10
2023-01-09T11:45:56.444Z,1.53
2023-01-09T11:48:34.387Z,1.03
2023-01-09T11:51:03.677Z,1.83
2023-01-09T11:53:46.637Z,1.60
2023-01-09T11:56:17.634Z,1.40
2023-01-09T11:58:45.836Z,1.40
2023-01-09T12:01:34.712Z,1.63
2023-01-09T12:04:24.891Z,1.40
2023-01-09T12:07:07.153Z,1.30
2023-01-09T12:09:42.537Z,1.10
2023-01-09T12:12:25.603Z,1.20
2023-01-09T12:15:10.184Z,1.00
2023-01-09T12:17:51.939Z,0.90
2023-01-09T12:20:34.384Z,1.17
2023-01-09T12:23:19.687Z,1.03
2023-01-09T12:25:59.494Z,1.60
2023-01-09T12:28:45.791Z,1.20
2023-01-09T12:31:30.016Z,0.90
2023-01-09T12:34:08.558Z,1.33
2023-01-09T12:36:45.076Z,1.33
2023-01-09T12:39:26.508Z,1.37
2023-01-09T12:42:08.755Z,1.10
2023-01-09T12:44:52.254Z,1.10
2023-01-09T12:47:39.455Z,1.23
2023-01-09T12:50:24.806Z,1.00
2023-01-09T12:53:06.540Z,1.30
2023-01-09T12:55:38.027Z,1.50
2023-01-09T12:58:13.062Z,1.60
2023-01-09T13:00:46.525Z,1.80
2023-01-09T13:03:21.572Z,2.00
2023-01-09T13:05:53.135Z,1.90
2023-01-09T13:08:26.805Z,1.50
2023-01-09T13:11:03.321Z,2.00
2023-01-09T13:13:44.331Z,1.97
2023-01-09T13:16:17.127Z,1.80
2023-01-09T13:18:48.911Z,1.90
2023-01-09T13:21:17.868Z,1.70
2023-01-09T13:23:52.439Z,2.17
2023-01-09T13:26:24.610Z,2.00
2023-01-09T13:28:57.104Z,1.50
2023-01-09T13:31:40.562Z,2.00
2023-01-09T13:34:21.720Z,2.27
2023-01-09T13:36:52.840Z,2.30
2023-01-09T13:39:22.895Z,2.40
2023-01-09T13:42:13.222Z,1.67
2023-01-09T13:44:41.622Z,1.93
2023-01-09T13:47:20.035Z,1.93
2023-01-09T13:50:06.067Z,1.80
2023-01-09T13:52:37.255Z,2.07
2023-01-09T13:55:30.226Z,1.70
2023-01-09T13:58:25.916Z,1.47
2023-01-09T14:01:27.378Z,1.50
2023-01-09T14:04:38.277Z,1.90
2023-01-09T14:07:20.338Z,1.57
2023-01-09T14:09:51.917Z,1.70
2023-01-09T14:12:21.551Z,1.73
2023-01-09T14:14:51.785Z,1.50
2023-01-09T14:17:28.385Z,2.00
2023-01-09T14:20:00.338Z,1.83
2023-01-09T14:22:30.532Z,1.67
2023-01-09T14:25:05.615Z,1.90
2023-01-09T14:28:08.367Z,1.90
2023-01-09T14:30:40.109Z,1.60
2023-01-09T14:33:27.605Z,1.90
2023-01-09T14:36:06.563Z,1.70
2023-01-09T14:38:37.157Z,2.00
2023-01-09T14:41:10.799Z,1.70
2023-01-09T14:43:58.123Z,2.00
2023-01-09T14:46:30.925Z,2.13
2023-01-09T14:49:07.056Z,2.00
2023-01-09T14:51:43.771Z,2.30
2023-01-09T14:54:25.262Z,2.47
2023-01-09T14:56:54.107Z,2.40
2023-01-09T14:59:21.972Z,2.10
2023-01-09T15:01:55.411Z,2.43
2023-01-09T15:04:35.783Z,2.73
2023-01-09T15:07:07.004Z,2.50
2023-01-09T15:09:44.315Z,2.20
2023-01-09T15:12:19.482Z,2.20
2023-01-09T15:14:51.526Z,2.30
2023-01-09T15:17:22.551Z,2.83
2023-01-09T15:19:50.578Z,2.33
2023-01-09T15:22:26.367Z,2.23
2023-01-09T15:24:54.338Z,2.33
2023-01-09T15:27:23.349Z,2.03
2023-01-09T15:29:51.507Z,2.40
2023-01-09T15:32:25.133Z,2.53
2023-01-09T15:34:54.667Z,2.50
2023-01-09T15:37:29.662Z,2.27
2023-01-09T15:39:59.007Z,2.37
2023-01-09T15:42:47.314Z,2.30
2023-01-09T15:45:26.080Z,2.20
2023-01-09T15:47:54.705Z,2.60
2023-01-09T15:50:28.421Z,2.03
2023-01-09T15:52:58.116Z,2.20
2023-01-09T15:55:35.203Z,2.10
2023-01-09T15:58:04.257Z,2.10
2023-01-09T16:00:41.976Z,2.30
2023-01-09T16:03:23.154Z,2.73
2023-01-09T16:05:53.957Z,3.20
2023-01-09T16:08:26.870Z,4.77
2023-01-09T16:10:57.191Z,2.57
2023-01-09T16:13:27.901Z,2.20
2023-01-09T16:15:57.455Z,2.93
2023-01-09T16:18:31.863Z,2.70
2023-01-09T16:21:21.867Z,2.50
2023-01-09T16:23:57.418Z,2.60
2023-01-09T16:26:27.244Z,2.30
2023-01-09T16:28:55.565Z,3.07
2023-01-09T16:31:26.570Z,2.80
2023-01-09T16:34:05.873Z,2.70
2023-01-09T16:36:36.150Z,3.13
2023-01-09T16:39:05.907Z,3.27
2023-01-09T16:41:51.314Z,3.77
2023-01-09T16:44:19.451Z,3.10
2023-01-09T16:46:48.828Z,3.33
2023-01-09T16:49:19.637Z,3.60
2023-01-09T16:51:48.461Z,3.23
2023-01-09T16:54:18.141Z,2.73
2023-01-09T16:56:51.756Z,3.03
2023-01-09T16:59:21.600Z,2.73
2023-01-09T17:01:49.601Z,3.07
2023-01-09T17:04:20.031Z,3.40
2023-01-09T17:06:49.551Z,3.10
2023-01-09T17:09:23.158Z,3.40
2023-01-09T17:11:52.034Z,3.20
2023-01-09T17:14:19.911Z,3.13
2023-01-09T17:16:47.888Z,3.00
2023-01-09T17:19:19.296Z,3.77
2023-01-09T17:21:47.368Z,4.25
2023-01-09T17:24:33.921Z,4.03
2023-01-09T17:27:21.749Z,4.63
2023-01-09T17:29:49.740Z,3.83
2023-01-09T17:32:18.671Z,4.30
2023-01-09T17:34:46.490Z,4.50
2023-01-09T17:37:16.491Z,4.67
2023-01-09T17:39:44.466Z,4.73
2023-01-09T17:42:13.799Z,4.97
2023-01-09T17:44:41.688Z,5.37
2023-01-09T17:47:15.212Z,5.73
2023-01-09T17:49:43.256Z,6.10
2023-01-09T17:52:11.178Z,6.93
2023-01-09T17:54:38.961Z,7.50
2023-01-09T17:57:07.809Z,7.23
2023-01-09T17:59:37.061Z,7.53
2023-01-09T18:02:04.975Z,6.83
2023-01-09T18:04:32.853Z,7.63
2023-01-09T18:07:00.654Z,7.50
2023-01-09T18:09:28.512Z,7.50
2023-01-09T18:11:56.558Z,7.93
2023-01-09T18:14:24.510Z,7.77
2023-01-09T18:16:53.795Z,8.10
2023-01-09T18:19:21.666Z,8.47
2023-01-09T18:21:49.499Z,8.50
2023-01-09T18:24:17.477Z,7.67
2023-01-09T18:26:45.310Z,6.93
2023-01-09T18:29:13.921Z,7.03
2023-01-09T18:31:41.981Z,7.13
2023-01-09T18:34:11.307Z,6.40
2023-01-09T18:36:39.520Z,6.07
2023-01-09T18:39:08.739Z,5.27
2023-01-09T18:41:36.621Z,4.20
2023-01-09T18:44:07.330Z,4.57
2023-01-09T18:56:48.419Z,2.97
2023-01-09T18:59:17.659Z,3.20
2023-01-09T19:01:45.378Z,2.17
2023-01-09T19:04:13.236Z,2.17
2023-01-09T19:06:41.090Z,4.07
2023-01-09T19:09:09.255Z,2.93
2023-01-09T19:11:37.034Z,2.73
2023-01-09T19:14:04.856Z,2.97
2023-01-09T19:16:33.993Z,2.63
2023-01-09T19:19:02.744Z,2.70
2023-01-09T19:21:30.679Z,3.97
2023-01-09T19:23:58.781Z,3.50
2023-01-09T19:26:28.781Z,3.20
2023-01-09T19:28:57.592Z,4.00
2023-01-09T19:31:28.464Z,3.90
2023-01-09T19:33:58.501Z,3.27
2023-01-09T19:36:26.923Z,3.77
2023-01-09T19:38:57.629Z,4.20
2023-01-09T19:41:25.365Z,4.00
2023-01-09T19:43:53.182Z,4.17
2023-01-09T19:46:23.046Z,5.57
2023-01-09T19:48:51.893Z,5.00
2023-01-09T19:51:22.494Z,4.77
2023-01-09T19:53:53.669Z,5.00
2023-01-09T19:56:23.426Z,5.73
2023-01-09T19:58:53.450Z,5.23
2023-01-09T20:01:24.609Z,5.83
2023-01-09T20:03:53.233Z,5.60
2023-01-09T20:06:24.361Z,5.43
2023-01-09T20:08:54.805Z,5.60
2023-01-09T20:11:23.463Z,5.50
2023-01-09T20:13:51.890Z,6.50
2023-01-09T20:16:22.039Z,5.30
2023-01-09T20:18:50.096Z,5.90
2023-01-09T20:21:21.646Z,6.00
2023-01-09T20:23:51.073Z,5.83
2023-01-09T20:26:18.880Z,6.40
2023-01-09T20:28:47.697Z,6.73
2023-01-09T20:31:17.423Z,7.13
2023-01-09T20:33:46.860Z,7.47
2023-01-09T20:36:15.183Z,6.93
2023-01-09T20:38:43.664Z,7.73
2023-01-09T20:41:22.607Z,7.60
2023-01-09T20:43:50.663Z,8.23
2023-01-09T20:46:19.164Z,8.20
2023-01-09T20:48:46.995Z,7.77
2023-01-09T20:51:15.023Z,9.03
2023-01-09T20:53:45.191Z,8.97
2023-01-09T20:56:15.007Z,8.80
2023-01-09T20:58:43.208Z,10.57
2023-01-09T21:01:12.683Z,9.90
2023-01-09T21:03:41.120Z,10.53
2023-01-09T21:06:11.217Z,9.70
2023-01-09T21:08:39.535Z,10.07
2023-01-09T21:11:07.274Z,9.80
2023-01-09T21:13:36.390Z,8.90
2023-01-09T21:16:08.262Z,9.03
2023-01-09T21:18:37.746Z,8.97
2023-01-09T21:21:06.589Z,9.77
2023-01-09T21:23:34.621Z,10.63
2023-01-09T21:26:02.932Z,10.20
2023-01-09T21:28:31.709Z,9.63
2023-01-09T21:31:00.877Z,9.60
2023-01-09T21:33:28.764Z,9.30
2023-01-09T21:35:57.787Z,9.33
2023-01-09T21:38:27.001Z,10.37
2023-01-09T21:40:55.386Z,11.07
2023-01-09T21:43:44.742Z,10.63
2023-01-09T21:46:37.846Z,12.27
2023-01-09T21:49:06.749Z,11.83
2023-01-09T21:51:38.809Z,9.47
2023-01-09T21:54:06.822Z,10.23
2023-01-09T21:56:34.845Z,8.07
2023-01-09T21:59:03.103Z,8.47
2023-01-09T22:01:33.650Z,8.20
2023-01-09T22:04:01.798Z,8.80
2023-01-09T22:06:29.739Z,8.63
2023-01-09T22:08:57.680Z,9.07
2023-01-09T22:11:25.647Z,8.90
2023-01-09T22:13:54.435Z,8.27
2023-01-09T22:16:24.381Z,9.27
2023-01-09T22:18:54.334Z,10.00
2023-01-09T22:21:23.290Z,9.00
2023-01-09T22:23:51.398Z,8.70
2023-01-09T22:26:19.983Z,7.93
2023-01-09T22:28:48.621Z,7.90
2023-01-09T22:31:19.814Z,8.00
2023-01-09T22:33:51.310Z,7.70
2023-01-09T22:36:21.017Z,8.00
2023-01-09T22:38:48.905Z,8.03
2023-01-09T22:41:16.850Z,7.83
2023-01-09T22:43:44.833Z,8.87
2023-01-09T22:46:12.801Z,8.40
2023-01-09T22:48:42.060Z,9.60
2023-01-09T22:51:15.157Z,9.43
2023-01-09T22:53:44.483Z,10.00
2023-01-09T22:56:15.260Z,10.50
2023-01-09T22:58:43.267Z,11.20
2023-01-09T23:01:12.497Z,11.40
2023-01-09T23:03:41.225Z,11.33
2023-01-09T23:06:12.712Z,11.73
2023-01-09T23:08:41.487Z,11.60
2023-01-09T23:11:13.041Z,11.00
2023-01-09T23:13:40.920Z,12.63
2023-01-09T23:16:09.364Z,11.27
2023-01-09T23:18:37.240Z,10.80
2023-01-09T23:21:06.129Z,11.33
2023-01-09T23:23:34.273Z,11.47
2023-01-09T23:26:04.754Z,11.43
2023-01-09T23:28:34.137Z,10.30
2023-01-09T23:31:02.079Z,10.03
2023-01-09T23:33:30.085Z,10.10
2023-01-09T23:35:58.567Z,9.10
2023-01-09T23:38:26.399Z,9.40
2023-01-09T23:40:57.933Z,8.90
2023-01-09T23:43:24.877Z,8.77
2023-01-09T23:45:54.146Z,9.07
2023-01-09T23:48:22.115Z,8.43
2023-01-09T23:50:52.004Z,8.10
2023-01-09T23:53:20.963Z,8.40
2023-01-09T23:55:49.050Z,8.40
2023-01-09T23:58:17.020Z,7.97
